Time;durP1;ratioP1;P1;durP2;ratioP2;P2;SDS_P1;SDS_P2;PMS_P1;PMS_P2;Temp;Humidity;BMP_temperature;BMP_pressure;BME280_temperature;BME280_humidity;BME280_pressure;Samples;Min_cycle;Max_cycle;Signal;HPM_P1;HPM_P2
2021/04/14 00:00:48;;;;;;;29.90;19.00;;;;;;;5.69;75.78;94242.30;1756005;81;21487;-56
2021/04/14 00:03:23;;;;;;;33.20;19.75;;;;;;;5.67;75.83;94237.88;1755965;81;21529;-55
2021/04/14 00:05:52;;;;;;;32.48;18.92;;;;;;;5.68;75.97;94231.22;1755947;81;21146;-55
2021/04/14 00:08:22;;;;;;;27.52;19.27;;;;;;;5.67;76.08;94239.24;1755939;81;21181;-55
2021/04/14 00:10:50;;;;;;;32.55;19.37;;;;;;;5.65;76.01;94229.36;1757335;80;21133;-55
2021/04/14 00:13:26;;;;;;;32.55;20.37;;;;;;;5.64;76.13;94225.09;1759679;81;21198;-57
2021/04/14 00:15:56;;;;;;;31.00;17.82;;;;;;;5.64;76.24;94222.36;1759839;81;22128;-55
2021/04/14 00:18:26;;;;;;;31.50;20.23;;;;;;;5.64;76.15;94221.00;1759702;81;21081;-56
2021/04/14 00:20:56;;;;;;;30.10;19.27;;;;;;;5.60;76.39;94225.78;1759697;81;21098;-55
2021/04/14 00:23:24;;;;;;;37.03;21.93;;;;;;;5.61;76.41;94217.77;1759710;81;21089;-55
2021/04/14 00:25:54;;;;;;;32.10;20.65;;;;;;;5.58;76.48;94220.75;1759637;81;21086;-57
2021/04/14 00:28:23;;;;;;;35.80;22.27;;;;;;;5.56;76.68;94219.62;1759709;81;21237;-56
2021/04/14 00:30:52;;;;;;;32.75;18.87;;;;;;;5.58;76.68;94220.00;1759702;80;21565;-55
2021/04/14 00:33:22;;;;;;;34.73;20.92;;;;;;;5.60;76.55;94224.42;1759684;81;21126;-55
2021/04/14 00:35:49;;;;;;;37.95;21.87;;;;;;;5.58;76.75;94215.29;1759732;80;21562;-55
2021/04/14 00:38:19;;;;;;;35.10;21.80;;;;;;;5.62;77.06;94216.57;1759701;81;21061;-56
2021/04/14 00:40:52;;;;;;;35.80;21.35;;;;;;;5.68;77.12;94214.85;1759713;81;21140;-56
2021/04/14 00:43:24;;;;;;;36.00;21.42;;;;;;;5.69;76.94;94207.61;1759813;81;22639;-56
2021/04/14 00:45:52;;;;;;;33.10;20.03;;;;;;;5.72;76.87;94201.30;1759972;81;21125;-56
2021/04/14 00:48:21;;;;;;;32.17;19.75;;;;;;;5.76;76.69;94200.59;1759786;81;21585;-55
2021/04/14 00:50:50;;;;;;;27.10;17.82;;;;;;;5.76;76.54;94199.84;1759701;81;21171;-55
2021/04/14 00:53:19;;;;;;;28.38;17.90;;;;;;;5.74;76.45;94194.03;1759690;81;21379;-55
2021/04/14 00:55:47;;;;;;;34.30;21.42;;;;;;;5.74;76.37;94191.30;1759634;81;21106;-54
2021/04/14 00:58:15;;;;;;;31.00;19.30;;;;;;;5.69;76.66;94187.15;1759669;81;21070;-56
2021/04/14 01:00:46;;;;;;;29.27;18.35;;;;;;;5.75;76.98;94190.12;1759681;81;21125;-56
2021/04/14 01:03:32;;;;;;;31.23;19.27;;;;;;;5.77;76.83;94188.48;1759721;81;21055;-55
2021/04/14 01:05:57;;;;;;;29.65;17.52;;;;;;;5.78;77.00;94188.68;1759638;81;25678;-55
2021/04/14 01:08:26;;;;;;;29.05;18.10;;;;;;;5.81;76.86;94191.16;1759588;81;21097;-56
2021/04/14 01:10:54;;;;;;;29.25;18.15;;;;;;;5.78;76.80;94183.80;1759464;81;21107;-55
2021/04/14 01:13:23;;;;;;;31.80;17.50;;;;;;;5.78;76.96;94181.86;1759663;81;21114;-55
2021/04/14 01:15:51;;;;;;;30.75;19.85;;;;;;;5.81;76.95;94176.15;1759637;80;21158;-55
2021/04/14 01:18:26;;;;;;;23.47;15.18;;;;;;;5.84;77.03;94171.97;1759659;81;21436;-56
2021/04/14 01:20:54;;;;;;;26.93;17.67;;;;;;;5.85;76.86;94172.72;1759650;81;21102;-56
2021/04/14 01:23:26;;;;;;;30.85;18.65;;;;;;;5.83;76.71;94172.39;1759641;81;21078;-55
2021/04/14 01:25:53;;;;;;;27.20;16.35;;;;;;;5.83;76.88;94173.14;1759660;81;21129;-55
2021/04/14 01:28:32;;;;;;;26.80;17.32;;;;;;;5.88;76.69;94163.67;1759625;80;21166;-56
2021/04/14 01:31:01;;;;;;;30.12;18.80;;;;;;;5.87;76.58;94166.23;1759622;81;21130;-56
2021/04/14 01:33:32;;;;;;;30.55;18.50;;;;;;;5.85;76.72;94162.58;1759572;81;21193;-55
2021/04/14 01:36:01;;;;;;;31.85;18.05;;;;;;;5.87;76.68;94158.05;1759712;80;21562;-55
2021/04/14 01:38:30;;;;;;;23.92;15.80;;;;;;;5.86;76.85;94157.30;1759627;81;21161;-56
2021/04/14 01:41:00;;;;;;;23.83;17.02;;;;;;;5.93;76.73;94159.06;1759627;81;21078;-56
2021/04/14 01:43:28;;;;;;;28.02;19.98;;;;;;;5.97;76.58;94152.91;1759764;81;22115;-56
2021/04/14 01:45:57;;;;;;;24.47;16.20;;;;;;;5.98;76.38;94157.16;1759687;81;21494;-56
2021/04/14 01:48:26;;;;;;;33.55;23.18;;;;;;;5.99;76.30;94152.63;1759632;81;21102;-55
2021/04/14 01:50:54;;;;;;;22.93;16.30;;;;;;;6.00;76.23;94150.06;1760915;81;21089;-56
2021/04/14 01:53:22;;;;;;;22.48;15.48;;;;;;;5.99;76.14;94151.26;1759613;81;21152;-56
2021/04/14 01:55:50;;;;;;;21.00;15.00;;;;;;;6.01;76.04;94148.11;1759635;81;21296;-57
2021/04/14 01:58:21;;;;;;;19.35;13.95;;;;;;;6.02;76.09;94151.00;1759554;81;21141;-55
2021/04/14 02:00:55;;;;;;;20.80;14.30;;;;;;;6.04;75.96;94151.34;1759640;81;21170;-54
2021/04/14 02:03:23;;;;;;;18.17;13.15;;;;;;;6.03;75.61;94149.80;1759654;80;21577;-55
2021/04/14 02:05:51;;;;;;;17.32;12.53;;;;;;;6.06;75.59;94147.57;1759704;81;21573;-55
2021/04/14 02:08:19;;;;;;;16.27;13.25;;;;;;;6.15;75.61;94139.53;1759634;81;21355;-55
2021/04/14 02:10:47;;;;;;;18.85;13.80;;;;;;;6.23;75.22;94144.94;1759328;81;21724;-56
2021/04/14 02:13:23;;;;;;;19.50;13.40;;;;;;;6.28;74.96;94143.81;1759663;81;21074;-54
2021/04/14 02:15:51;;;;;;;18.73;13.55;;;;;;;6.35;74.62;94142.84;1759638;81;21561;-55
2021/04/14 02:18:20;;;;;;;20.23;14.20;;;;;;;6.42;74.19;94139.31;1759652;81;21153;-53
2021/04/14 02:20:48;;;;;;;18.00;12.82;;;;;;;6.41;74.07;94136.41;1759645;81;21382;-55
2021/04/14 02:23:26;;;;;;;21.80;14.43;;;;;;;6.42;73.79;94137.16;1759564;81;21101;-56
2021/04/14 02:25:59;;;;;;;27.52;16.17;;;;;;;6.41;74.02;94132.91;1759606;80;21067;-56
2021/04/14 02:28:26;;;;;;;26.17;17.85;;;;;;;6.37;73.83;94132.25;1759779;81;21074;-55
2021/04/14 02:30:55;;;;;;;36.08;22.35;;;;;;;6.38;74.12;94135.92;1759551;81;21073;-63
2021/04/14 02:33:23;;;;;;;35.63;21.00;;;;;;;6.46;73.79;94129.63;1759733;81;22120;-59
2021/04/14 02:35:52;;;;;;;28.07;17.12;;;;;;;6.42;73.65;94127.61;1759482;80;21176;-56
2021/04/14 02:38:22;;;;;;;18.77;13.08;;;;;;;6.39;73.36;94125.75;1759618;81;21599;-56
2021/04/14 02:40:49;;;;;;;20.75;12.98;;;;;;;6.35;73.34;94120.38;1759711;81;21173;-56
2021/04/14 02:43:18;;;;;;;19.48;12.30;;;;;;;6.38;73.31;94118.17;1736024;81;21042;-57
2021/04/14 02:45:46;;;;;;;19.23;11.73;;;;;;;6.45;73.21;94122.63;1759616;81;22240;-57
2021/04/14 02:48:15;;;;;;;17.45;11.68;;;;;;;6.51;72.95;94119.55;1759575;81;21073;-56
2021/04/14 02:50:43;;;;;;;44.45;29.55;;;;;;;6.52;72.75;94116.36;1759576;81;21101;-56
2021/04/14 02:53:12;;;;;;;52.08;33.33;;;;;;;6.51;72.51;94118.17;1759588;81;21142;-56
2021/04/14 02:55:41;;;;;;;37.33;26.50;;;;;;;6.44;72.63;94115.64;1759605;81;21130;-56
2021/04/14 02:58:10;;;;;;;47.65;28.70;;;;;;;6.47;72.82;94120.23;1759608;81;21169;-55
2021/04/14 03:00:38;;;;;;;50.33;26.60;;;;;;;6.50;72.71;94109.81;1760887;81;21079;-56
2021/04/14 03:03:06;;;;;;;19.70;13.32;;;;;;;6.52;72.68;94108.78;1759578;81;21523;-57
2021/04/14 03:05:36;;;;;;;52.50;27.13;;;;;;;6.57;72.38;94101.39;1759589;81;21082;-55
2021/04/14 03:08:05;;;;;;;44.70;24.65;;;;;;;6.57;72.24;94093.20;1759608;81;21065;-53
2021/04/14 03:10:34;;;;;;;41.13;22.40;;;;;;;6.55;72.31;94096.35;1759490;80;21275;-54
2021/04/14 03:13:04;;;;;;;25.75;14.87;;;;;;;6.57;72.34;94093.20;1759457;81;21133;-54
2021/04/14 03:15:38;;;;;;;16.55;11.20;;;;;;;6.60;72.38;94092.31;1759612;81;21151;-55
2021/04/14 03:18:07;;;;;;;;;;;;;;;6.63;72.39;94085.97;1762219;81;21097;-56
2021/04/14 03:20:35;;;;;;;12.33;8.78;;;;;;;6.61;72.46;94085.06;1759644;81;20252;-56
2021/04/14 03:23:03;;;;;;;12.28;9.20;;;;;;;6.69;72.45;94080.89;1759629;81;21195;-56
2021/04/14 03:25:31;;;;;;;17.60;11.57;;;;;;;6.71;72.19;94081.83;1759515;81;21141;-54
2021/04/14 03:28:01;;;;;;;13.83;10.13;;;;;;;6.72;72.37;94080.63;1759566;81;21154;-53
2021/04/14 03:30:29;;;;;;;15.60;10.63;;;;;;;6.73;72.25;94083.52;1759692;81;21636;-55
2021/04/14 03:32:57;;;;;;;15.30;10.65;;;;;;;6.78;72.05;94084.33;1759774;81;21126;-53
2021/04/14 03:35:27;;;;;;;21.25;14.60;;;;;;;6.88;71.64;94090.08;1759707;80;22421;-55
2021/04/14 03:37:54;;;;;;;26.40;18.95;;;;;;;6.95;71.33;94089.25;1759651;80;21177;-56
2021/04/14 03:40:23;;;;;;;18.00;13.18;;;;;;;6.95;71.04;94081.64;1759743;81;21125;-54
2021/04/14 03:42:52;;;;;;;15.55;11.60;;;;;;;6.85;71.08;94088.23;1759807;81;21133;-56
2021/04/14 03:45:30;;;;;;;11.88;9.65;;;;;;;6.77;71.36;94078.70;1759758;81;21134;-56
2021/04/14 03:47:57;;;;;;;19.75;13.93;;;;;;;6.77;71.79;94079.48;1759724;81;21350;-57
2021/04/14 03:50:26;;;;;;;19.73;16.05;;;;;;;6.89;71.95;94082.04;1759642;81;21137;-56
2021/04/14 03:52:54;;;;;;;27.30;22.48;;;;;;;7.08;71.72;94087.86;1759763;81;21062;-56
2021/04/14 03:55:23;;;;;;;25.20;21.85;;;;;;;7.23;71.31;94085.58;1759792;80;21142;-57
2021/04/14 03:57:51;;;;;;;14.50;12.18;;;;;;;7.27;70.75;94082.89;1759828;81;21623;-56
2021/04/14 04:00:21;;;;;;;10.70;9.00;;;;;;;7.25;70.58;94081.80;1759660;81;21424;-56
2021/04/14 04:02:49;;;;;;;16.35;11.00;;;;;;;7.18;70.60;94084.16;1759736;80;21256;-54
2021/04/14 04:05:17;;;;;;;15.30;11.83;;;;;;;7.11;70.89;94085.77;1759722;80;21054;-55
2021/04/14 04:07:44;;;;;;;22.42;14.05;;;;;;;7.12;70.87;94087.30;1759703;81;21534;-55
2021/04/14 04:10:14;;;;;;;17.27;11.68;;;;;;;7.13;70.83;94088.83;1759661;81;21090;-55
2021/04/14 04:12:42;;;;;;;13.10;10.95;;;;;;;7.06;70.74;94084.80;1757266;81;21211;-55
2021/04/14 04:15:13;;;;;;;34.08;17.87;;;;;;;6.96;70.93;94085.90;1755863;81;21125;-55
2021/04/14 04:17:40;;;;;;;26.97;17.95;;;;;;;6.85;71.20;94084.88;1755983;81;21169;-54
2021/04/14 04:20:11;;;;;;;17.80;12.80;;;;;;;6.77;71.49;94086.91;1755950;81;21083;-54
2021/04/14 04:22:39;;;;;;;15.83;11.83;;;;;;;6.72;71.69;94084.73;1756089;81;21549;-54
2021/04/14 04:25:10;;;;;;;19.90;12.98;;;;;;;6.66;71.87;94085.13;1755996;81;21208;-55
2021/04/14 04:27:38;;;;;;;14.23;11.43;;;;;;;6.67;72.17;94086.66;1755836;80;21090;-55
2021/04/14 04:30:08;;;;;;;17.67;12.43;;;;;;;6.65;72.18;94084.93;1755910;81;21087;-55
2021/04/14 04:32:36;;;;;;;51.00;27.10;;;;;;;6.58;72.34;94087.89;1756132;81;21490;-54
2021/04/14 04:35:06;;;;;;;52.10;27.75;;;;;;;6.53;72.47;94081.00;1755952;81;21085;-55
2021/04/14 04:37:35;;;;;;;40.90;22.10;;;;;;;6.58;72.28;94077.74;1755927;80;21154;-54
2021/04/14 04:40:05;;;;;;;38.45;21.57;;;;;;;6.58;72.24;94089.26;1755821;80;21157;-55
2021/04/14 04:42:33;;;;;;;46.53;26.10;;;;;;;6.59;72.06;94081.22;1756027;81;21530;-55
2021/04/14 04:45:06;;;;;;;82.53;34.78;;;;;;;6.52;72.05;94081.45;1755908;81;21142;-55
2021/04/14 04:47:34;;;;;;;90.62;35.08;;;;;;;6.50;72.19;94087.34;1756101;81;21539;-55
2021/04/14 04:50:04;;;;;;;111.70;42.15;;;;;;;6.51;72.29;94086.14;1755945;81;22877;-55
2021/04/14 04:52:32;;;;;;;90.50;37.10;;;;;;;6.51;72.22;94088.88;1755814;81;21158;-54
2021/04/14 04:55:00;;;;;;;66.72;29.07;;;;;;;6.52;72.32;94091.02;1755906;81;21103;-55
2021/04/14 04:57:28;;;;;;;42.20;21.97;;;;;;;6.48;72.51;94087.02;1755900;80;21083;-56
2021/04/14 04:59:56;;;;;;;36.50;19.15;;;;;;;6.46;72.47;94094.11;1755862;81;21526;-55
2021/04/14 05:02:24;;;;;;;15.78;12.45;;;;;;;6.43;72.74;94095.77;1755945;81;21354;-58
2021/04/14 05:04:53;;;;;;;39.18;23.10;;;;;;;6.40;72.92;94093.91;1755934;81;21606;-55
2021/04/14 05:07:21;;;;;;;14.80;10.53;;;;;;;6.42;73.06;94094.23;1755858;81;21157;-55
2021/04/14 05:09:49;;;;;;;14.38;10.28;;;;;;;6.48;72.89;94093.09;1755840;80;21145;-55
2021/04/14 05:12:17;;;;;;;16.27;11.45;;;;;;;6.53;72.46;94093.91;1755723;81;21074;-56
2021/04/14 05:14:45;;;;;;;16.70;11.15;;;;;;;6.48;72.43;94094.47;1755871;81;21374;-57
2021/04/14 05:17:14;;;;;;;19.52;13.83;;;;;;;6.41;72.45;94098.76;1755869;81;21097;-56
2021/04/14 05:19:42;;;;;;;16.65;12.30;;;;;;;6.37;72.73;94100.22;1755617;80;21118;-56
2021/04/14 05:22:10;;;;;;;13.90;10.82;;;;;;;6.38;72.77;94103.73;1755324;81;21490;-58
2021/04/14 05:24:41;;;;;;;18.92;15.63;;;;;;;6.41;72.72;94097.39;1755727;80;21213;-57
2021/04/14 05:27:13;;;;;;;16.10;12.58;;;;;;;6.40;72.57;94098.01;1757012;80;21210;-56
2021/04/14 05:29:41;;;;;;;21.20;16.12;;;;;;;6.32;72.73;94100.77;1759582;80;21212;-57
2021/04/14 05:32:11;;;;;;;26.20;18.17;;;;;;;6.29;72.83;94098.13;1759966;80;21138;-59
2021/04/14 05:34:39;;;;;;;36.85;22.67;;;;;;;6.20;73.19;94095.30;1755894;80;21206;-56
2021/04/14 05:37:07;;;;;;;34.15;21.82;;;;;;;6.19;73.29;94095.13;1771200;80;21213;-56
2021/04/14 05:39:35;;;;;;;25.65;18.85;;;;;;;6.15;73.45;94089.77;1759006;80;21352;-56
2021/04/14 05:42:04;;;;;;;26.97;18.62;;;;;;;6.16;73.29;94095.39;1762494;80;21497;-56
2021/04/14 05:44:32;;;;;;;26.85;17.67;;;;;;;6.16;73.36;94094.64;1760735;80;21634;-55
2021/04/14 05:47:00;;;;;;;25.32;16.95;;;;;;;6.23;73.37;94101.25;1756105;80;21218;-58
2021/04/14 05:49:29;;;;;;;24.02;16.23;;;;;;;6.26;73.28;94096.27;1763755;80;21631;-57
2021/04/14 05:51:57;;;;;;;24.70;16.82;;;;;;;6.24;73.24;94094.58;1754943;80;22217;-55
2021/04/14 05:54:25;;;;;;;22.30;16.45;;;;;;;6.16;73.33;94094.64;1762298;80;21637;-57
2021/04/14 05:56:53;;;;;;;22.90;16.35;;;;;;;6.16;73.53;94097.37;1752163;80;21413;-55
2021/04/14 05:59:22;;;;;;;25.17;17.35;;;;;;;6.11;73.12;94094.56;1755182;80;21182;-56
2021/04/14 06:01:50;;;;;;;16.73;13.30;;;;;;;6.02;73.08;94096.41;1752743;80;21144;-58
2021/04/14 06:04:18;;;;;;;15.60;11.88;;;;;;;5.99;73.13;94101.37;1748766;80;22651;-55
2021/04/14 06:06:46;;;;;;;14.58;11.08;;;;;;;5.98;73.26;94099.84;1751152;80;21174;-55
2021/04/14 06:09:14;;;;;;;19.37;13.22;;;;;;;5.96;73.31;94098.14;1752116;80;21602;-54
2021/04/14 06:11:44;;;;;;;19.42;13.88;;;;;;;5.92;73.39;94105.64;1750057;80;21621;-57
2021/04/14 06:14:13;;;;;;;18.75;14.75;;;;;;;5.90;73.34;94102.00;1725314;82;21201;-55
2021/04/14 06:16:41;;;;;;;14.78;11.35;;;;;;;5.87;73.53;94104.23;1743877;81;22106;-55
2021/04/14 06:19:11;;;;;;;33.18;20.65;;;;;;;5.84;73.34;94100.23;1740911;81;21273;-55
2021/04/14 06:21:39;;;;;;;36.28;22.70;;;;;;;5.85;73.22;94101.77;1744402;81;21258;-58
2021/04/14 06:24:09;;;;;;;36.25;21.70;;;;;;;5.89;73.27;94098.33;1741598;80;21133;-57
2021/04/14 06:29:15;;;;;;;25.30;13.68;;;;;;;5.96;73.31;94103.61;1735012;81;22641;-56
2021/04/14 06:31:45;;;;;;;16.17;10.70;;;;;;;5.99;73.23;94104.85;1733691;81;21636;-57
2021/04/14 06:34:20;;;;;;;14.87;10.72;;;;;;;5.99;73.09;94112.29;1733515;81;21189;-60
2021/04/14 06:36:50;;;;;;;17.80;11.93;;;;;;;5.97;73.20;94109.98;1755454;80;21118;-57
2021/04/14 06:39:20;;;;;;;15.95;12.75;;;;;;;5.92;73.40;94108.38;1767610;80;21185;-54
2021/04/14 06:45:12;;;;;;;26.17;15.38;;;;;;;5.92;73.65;94113.83;1863291;75;21848;-56
2021/04/14 06:47:51;;;;;;;26.52;18.10;;;;;;;5.95;73.37;94110.27;1833953;77;21172;-59
2021/04/14 06:50:50;;;;;;;24.32;16.65;;;;;;;6.00;72.96;94103.65;1835172;77;21265;-58
2021/04/14 06:54:01;;;;;;;18.87;13.43;;;;;;;6.08;73.33;94111.05;1803314;77;21139;-57
2021/04/14 06:56:30;;;;;;;12.95;9.93;;;;;;;6.17;72.75;94103.74;1838627;77;21165;-56
2021/04/14 06:59:03;;;;;;;14.90;13.08;;;;;;;6.16;72.28;94108.29;1804328;76;21153;-60
2021/04/14 07:01:42;;;;;;;10.08;9.03;;;;;;;6.18;72.21;94108.63;1826860;76;21172;-58
2021/04/14 07:04:24;;;;;;;15.40;13.15;;;;;;;6.19;72.19;94099.23;1838800;76;21196;-57
2021/04/14 07:06:53;;;;;;;10.90;9.65;;;;;;;6.18;72.19;94101.79;1828949;76;21127;-56
2021/04/14 07:09:32;;;;;;;9.65;8.65;;;;;;;6.19;72.45;94096.49;1825677;77;21144;-53
2021/04/14 07:12:01;;;;;;;14.13;11.65;;;;;;;6.21;72.23;94098.19;1799728;78;21026;-58
2021/04/14 07:14:30;;;;;;;18.42;14.35;;;;;;;6.23;72.07;94101.25;1848434;77;21181;-57
2021/04/14 07:17:09;;;;;;;16.57;12.75;;;;;;;6.33;72.24;94095.47;1837111;77;22056;-58
2021/04/14 07:19:55;;;;;;;24.07;15.60;;;;;;;6.40;71.74;94094.50;1834520;76;21629;-61
2021/04/14 07:23:11;;;;;;;20.65;14.10;;;;;;;6.27;70.84;94097.80;1792371;77;21238;-56
2021/04/14 07:25:48;;;;;;;23.50;12.82;;;;;;;6.12;71.01;94096.71;1835941;77;22144;-59
2021/04/14 07:28:39;;;;;;;29.45;19.27;;;;;;;6.09;71.55;94098.34;1837437;77;21108;-57
2021/04/14 07:31:47;;;;;;;39.00;21.12;;;;;;;6.16;71.54;94102.83;1801706;76;21482;-57
2021/04/14 07:34:40;;;;;;;53.87;25.97;;;;;;;6.31;71.45;94106.06;1830576;77;21180;-57
2021/04/14 07:37:13;;;;;;;29.10;16.35;;;;;;;6.37;71.28;94100.22;1810823;76;21223;-59
2021/04/14 07:39:55;;;;;;;15.35;10.82;;;;;;;6.37;71.29;94109.78;1757748;77;21168;-60
2021/04/14 07:42:46;;;;;;;;;;;;;;;6.34;71.25;94112.02;1768609;78;21601;-55
2021/04/14 07:45:34;;;;;;;13.40;10.53;;;;;;;6.30;71.62;94109.25;1774108;78;22683;-60
2021/04/14 07:48:07;;;;;;;18.07;13.13;;;;;;;6.37;71.54;94106.30;1799830;78;21126;-59
2021/04/14 07:50:43;;;;;;;19.27;12.82;;;;;;;6.40;71.49;94106.79;1801364;78;21200;-56
2021/04/14 07:53:18;;;;;;;15.43;11.78;;;;;;;6.43;71.50;94112.74;1754568;80;21134;-58
2021/04/14 07:55:47;;;;;;;18.30;13.08;;;;;;;6.47;71.50;94110.66;1745836;81;21626;-65
2021/04/14 07:58:20;;;;;;;19.32;13.80;;;;;;;6.46;71.64;94108.55;1747813;80;21228;-56
2021/04/14 08:00:47;;;;;;;18.77;16.37;;;;;;;6.59;71.56;94105.81;1741033;79;21605;-60
2021/04/14 08:03:28;;;;;;;13.08;10.88;;;;;;;6.74;70.83;94107.67;1744312;80;21175;-61
2021/04/14 08:06:18;;;;;;;23.65;19.55;;;;;;;6.73;70.40;94104.77;1747590;80;21542;-59
2021/04/14 08:08:47;;;;;;;17.50;13.38;;;;;;;6.81;70.44;94102.59;1746793;81;21161;-60
2021/04/14 08:11:31;;;;;;;17.45;13.50;;;;;;;7.03;69.74;94104.21;1719797;81;22932;-59
2021/04/14 08:14:10;;;;;;;12.73;11.40;;;;;;;7.08;69.43;94102.90;1737553;80;21579;-58
2021/04/14 08:16:43;;;;;;;14.07;11.70;;;;;;;7.13;69.68;94105.85;1743967;80;21221;-61
2021/04/14 08:19:27;;;;;;;16.00;12.90;;;;;;;7.21;69.41;94097.56;1737983;80;21135;-58
2021/04/14 08:22:03;;;;;;;14.03;11.55;;;;;;;7.32;68.99;94096.00;1742877;78;22334;-59
2021/04/14 08:24:53;;;;;;;17.00;14.18;;;;;;;7.49;68.81;94105.59;1741302;80;21281;-64
2021/04/14 08:27:27;;;;;;;21.77;17.27;;;;;;;7.57;67.97;94106.89;1743213;80;21213;-65
2021/04/14 08:30:15;;;;;;;16.10;14.30;;;;;;;7.52;68.04;94099.84;1743603;80;21179;-63
2021/04/14 08:32:55;;;;;;;23.67;18.20;;;;;;;7.56;68.21;94102.59;1748696;80;21154;-57
2021/04/14 08:35:37;;;;;;;16.12;13.83;;;;;;;7.49;68.22;94103.47;1724300;81;21157;-57
2021/04/14 08:38:24;;;;;;;17.37;13.85;;;;;;;7.39;68.43;94095.78;1739731;80;21365;-60
2021/04/14 08:41:00;;;;;;;12.98;11.65;;;;;;;7.43;68.61;94097.01;1742249;80;21562;-61
2021/04/14 08:43:39;;;;;;;18.05;14.65;;;;;;;7.53;68.91;94104.11;1751944;80;21217;-64
2021/04/14 08:46:19;;;;;;;16.97;13.65;;;;;;;7.64;68.23;94097.05;1751110;80;22222;-60
2021/04/14 08:48:52;;;;;;;18.77;15.50;;;;;;;7.74;67.85;94095.91;1747038;80;21145;-59
2021/04/14 08:51:20;;;;;;;26.40;18.95;;;;;;;7.86;67.32;94100.57;1740618;81;21666;-54
2021/04/14 08:53:49;;;;;;;18.02;14.47;;;;;;;7.91;67.16;94099.25;1753778;81;21206;-60
2021/04/14 08:56:18;;;;;;;18.75;11.85;;;;;;;7.91;67.90;94108.83;1732496;81;22255;-59
2021/04/14 08:58:48;;;;;;;17.87;13.00;;;;;;;7.89;68.05;94106.52;1747389;79;21162;-55
2021/04/14 09:01:16;;;;;;;13.48;10.68;;;;;;;7.82;68.45;94106.78;1730598;80;21551;-57
2021/04/14 09:03:45;;;;;;;23.10;15.83;;;;;;;7.77;68.58;94103.25;1745216;80;22065;-60
2021/04/14 09:06:16;;;;;;;21.25;15.90;;;;;;;7.84;68.65;94100.84;1741188;80;21927;-60
2021/04/14 09:08:47;;;;;;;12.98;11.15;;;;;;;7.93;68.77;94112.66;1747851;80;21201;-56
2021/04/14 09:11:24;;;;;;;36.15;27.30;;;;;;;7.99;68.19;94108.13;1739837;80;21146;-57
2021/04/14 09:14:06;;;;;;;11.80;9.68;;;;;;;7.95;67.31;94106.13;1770660;80;21241;-60
2021/04/14 09:16:54;;;;;;;11.35;8.95;;;;;;;7.81;66.73;94111.33;1758500;80;21320;-58
2021/04/14 09:19:31;;;;;;;14.65;11.50;;;;;;;7.55;67.21;94112.64;1733096;80;21190;-59
2021/04/14 09:22:17;;;;;;;13.40;10.00;;;;;;;7.45;67.93;94109.05;1737227;80;22270;-59
2021/04/14 09:24:58;;;;;;;10.43;8.90;;;;;;;7.38;68.22;94102.43;1737079;80;21254;-57
2021/04/14 09:27:40;;;;;;;10.60;7.72;;;;;;;7.33;68.01;94106.36;1748902;80;21635;-58
2021/04/14 09:30:32;;;;;;;11.18;9.50;;;;;;;7.38;67.69;94099.70;1732689;80;21599;-57
2021/04/14 09:33:09;;;;;;;17.67;14.73;;;;;;;7.35;67.79;94097.84;1744488;81;21181;-56
2021/04/14 09:35:48;;;;;;;14.87;10.93;;;;;;;7.32;67.66;94095.25;1738102;81;21177;-60
2021/04/14 09:38:30;;;;;;;42.35;25.60;;;;;;;7.30;67.88;94092.95;1737403;80;21130;-55
2021/04/14 09:41:10;;;;;;;48.02;33.67;;;;;;;7.28;68.41;94106.30;1736583;80;21121;-62
2021/04/14 09:43:42;;;;;;;35.75;22.42;;;;;;;7.28;68.30;94100.83;1740630;80;21311;-56
2021/04/14 09:46:27;;;;;;;25.30;16.07;;;;;;;7.25;68.45;94104.45;1751951;80;22413;-58
2021/04/14 09:49:12;;;;;;;22.25;14.55;;;;;;;7.24;68.57;94100.19;1749521;80;22104;-57
2021/04/14 09:51:42;;;;;;;11.10;9.60;;;;;;;7.25;68.41;94103.67;1733676;80;21106;-54
2021/04/14 09:54:19;;;;;;;10.58;9.15;;;;;;;7.30;68.30;94101.16;1741071;81;21252;-54
2021/04/14 09:56:52;;;;;;;6.12;5.28;;;;;;;7.29;68.20;94100.22;1713711;81;21220;-57
2021/04/14 09:59:32;;;;;;;5.33;4.83;;;;;;;7.27;68.27;94095.20;1746675;80;21621;-59
2021/04/14 10:02:04;;;;;;;7.53;6.25;;;;;;;7.33;68.39;94103.00;1746557;80;22064;-54
2021/04/14 10:04:35;;;;;;;8.75;7.30;;;;;;;7.34;68.30;94095.57;1744328;80;21653;-56
2021/04/14 10:07:14;;;;;;;9.35;8.20;;;;;;;7.31;68.35;94099.94;1749824;81;21160;-58
2021/04/14 10:09:44;;;;;;;10.28;8.93;;;;;;;7.32;68.28;94105.58;1734941;80;21149;-57
2021/04/14 10:12:21;;;;;;;8.03;7.30;;;;;;;7.28;68.35;94097.31;1737850;81;21184;-54
2021/04/14 10:14:56;;;;;;;7.75;6.97;;;;;;;7.33;68.59;94098.14;1745372;81;21293;-59
2021/04/14 10:17:29;;;;;;;10.23;7.55;;;;;;;7.44;68.15;94095.21;1748955;81;21515;-58
2021/04/14 10:20:18;;;;;;;6.33;5.65;;;;;;;7.53;67.81;94103.48;1743139;81;21224;-63
2021/04/14 10:22:49;;;;;;;8.60;6.70;;;;;;;7.65;67.55;94101.91;1740094;80;22630;-58
2021/04/14 10:25:30;;;;;;;9.18;8.25;;;;;;;7.69;67.53;94100.59;1752186;80;21210;-56
2021/04/14 10:28:07;;;;;;;8.78;6.95;;;;;;;7.74;67.18;94105.48;1749780;81;21134;-57
2021/04/14 10:30:37;;;;;;;8.95;7.30;;;;;;;7.72;67.03;94099.69;1747435;80;21217;-55
2021/04/14 10:33:19;;;;;;;6.55;5.95;;;;;;;7.73;67.01;94106.70;1748794;81;21186;-57
2021/04/14 10:35:50;;;;;;;5.40;4.90;;;;;;;7.76;66.77;94109.94;1748692;81;22185;-57
2021/04/14 10:38:31;;;;;;;8.75;7.92;;;;;;;7.76;66.22;94111.31;1747009;81;21595;-59
2021/04/14 10:40:59;;;;;;;7.10;6.40;;;;;;;7.72;66.38;94113.38;1745222;80;21150;-58
2021/04/14 10:43:28;;;;;;;9.65;7.80;;;;;;;7.77;66.67;94114.20;1744905;81;21152;-57
2021/04/14 10:46:19;;;;;;;10.80;8.00;;;;;;;7.75;66.64;94112.52;1744695;81;21183;-57
2021/04/14 10:48:49;;;;;;;10.65;7.95;;;;;;;7.79;66.62;94104.94;1744073;81;21199;-54
2021/04/14 10:51:23;;;;;;;8.88;6.90;;;;;;;7.81;66.26;94118.17;1750418;81;21638;-54
2021/04/14 10:53:52;;;;;;;7.58;6.78;;;;;;;7.85;66.29;94121.57;1725321;81;22210;-61
2021/04/14 10:56:25;;;;;;;9.13;7.85;;;;;;;7.84;66.45;94116.69;1746086;80;21160;-60
2021/04/14 10:58:55;;;;;;;9.43;7.60;;;;;;;7.89;66.56;94122.20;1749014;81;21175;-59
2021/04/14 11:01:39;;;;;;;9.93;8.45;;;;;;;7.88;66.29;94121.42;1743600;80;21890;-58
2021/04/14 11:04:34;;;;;;;9.03;7.58;;;;;;;7.92;66.02;94124.80;1737207;81;21715;-58
2021/04/14 11:07:10;;;;;;;7.40;6.70;;;;;;;7.91;65.61;94126.01;1742205;81;21495;-58
2021/04/14 11:09:43;;;;;;;10.53;8.85;;;;;;;7.86;64.84;94126.59;1749651;80;21210;-61
2021/04/14 11:12:19;;;;;;;8.68;7.53;;;;;;;7.83;65.14;94122.59;1747672;80;21216;-61
2021/04/14 11:14:52;;;;;;;8.85;7.08;;;;;;;7.78;64.80;94125.91;1738271;81;21223;-58
2021/04/14 11:17:28;;;;;;;10.68;8.70;;;;;;;7.77;64.89;94118.31;1742871;81;21207;-63
2021/04/14 11:20:09;;;;;;;11.08;9.10;;;;;;;7.86;64.95;94123.09;1734303;80;21446;-60
2021/04/14 11:22:49;;;;;;;14.20;10.85;;;;;;;7.92;64.98;94127.53;1735072;80;21217;-60
2021/04/14 11:25:32;;;;;;;17.10;10.63;;;;;;;7.95;64.87;94121.78;1739297;81;21415;-59
2021/04/14 11:28:08;;;;;;;29.10;15.90;;;;;;;7.89;64.14;94122.20;1736375;81;21228;-59
2021/04/14 11:30:54;;;;;;;15.63;10.25;;;;;;;7.74;63.75;94117.81;1742869;80;21273;-57
2021/04/14 11:33:39;;;;;;;16.10;11.20;;;;;;;7.64;64.20;94123.65;1743417;80;21193;-60
2021/04/14 11:36:33;;;;;;;15.72;9.30;;;;;;;7.60;63.86;94127.12;1733006;80;21586;-57
2021/04/14 11:39:17;;;;;;;7.25;6.55;;;;;;;7.50;64.11;94127.64;1739394;81;21199;-60
2021/04/14 11:41:49;;;;;;;8.70;7.80;;;;;;;7.42;64.29;94120.89;1741408;80;21200;-59
2021/04/14 11:44:21;;;;;;;;;;;;;;;7.39;64.30;94119.63;1726234;80;21190;-61
2021/04/14 11:47:01;;;;;;;9.78;8.75;;;;;;;7.39;64.19;94123.14;1741957;81;20289;-56
2021/04/14 11:49:36;;;;;;;7.92;7.22;;;;;;;7.37;64.21;94124.78;1736323;81;21145;-59
2021/04/14 11:52:31;;;;;;;10.28;8.20;;;;;;;7.39;64.41;94117.67;1744709;81;21125;-60
2021/04/14 11:55:15;;;;;;;18.90;11.45;;;;;;;7.36;64.10;94119.89;1742893;81;21225;-60
2021/04/14 11:57:44;;;;;;;15.75;11.10;;;;;;;7.24;64.35;94118.56;1719128;81;21149;-58
2021/04/14 12:00:40;;;;;;;11.60;7.08;;;;;;;7.21;64.37;94119.45;1742491;80;21872;-56
2021/04/14 12:03:30;;;;;;;8.43;7.40;;;;;;;7.19;64.30;94118.50;1742536;80;21165;-64